Terminal Aerodrome Forecast
Issued by NWS

Home | Current Version | Previous Version | Text Only | Print | Product List | Glossary On
Versions: 1 2 3 4 5 6 7 8 9 10 11 12 13 14 15 16 17 18 19 20 21 22 23 24 25 26 27 28
000
FTUS41 KOKX 302135 AAB
TAFSWF
TAF AMD
KSWF 302135Z 3022/3124 16010KT 4SM RA BR BKN015
      TEMPO 3022/3024 2SM BR BKN004
     FM310000 VRB03KT 4SM SHRA BKN025 OVC050
     FM310500 VRB03KT 5SM BR OVC015
     FM310700 VRB03KT 3SM SHRA BR OVC008
     FM312000 12006KT 5SM SHRA SCT008 OVC025
      AMD NOT SKED=

USA.gov is the U.S. government's official web portal to all federal, state and local government web resources and services.